Etusivu
METAR-TAF:

METAR-TAF

Lentoasemat :

Laurel, Mississippi, Yhdysvallat

Leveyspiiri: 31-40-23N, Pituuspiiri: 089-10-22W, korkeus merenpinnasta: 73 m

Tämänhetkinen sää

Tämä raportti tehtiin 32 minuuttia sitten, kello 13.35 UTC
Tuuli 6 kn etelästä/kaakosta
Lämpötila 21°C
Kosteus 88%
Ilmanpaine 1012 hPa
Näkyvyys: 16.1 km
Hajonneita pilviä 1200 ft:n korkeudessa
Hajonneita pilviä 1900 ft:n korkeudessa
Pilvistä 4800 ft:n korkeudessa

METAR: KLUL 251335Z AUTO 16006KT 10SM BKN012 BKN019 OVC048 21/19 A2987 RMK A02 T02090190

Aika: 09:07 (14:07 UTC)


TAF: puuttuu

Säähavainnot ja -ennusteet yli 4000 lentoasemalta (METAR- ja TAF-raportit).

Käytössä olevat sääasemat on merkitty karttaan keltaisilla ja punaisilla pisteillä.

Aseta hiiri pisteen päälle nähdäksesi sääaseman nimen.

Klikkaa sitten nähdäksesi säähavainnot ja -ennusteet.

Kartan vaihtaminen: klikkaa mustalla rastilla varustettuja vihreitä pisteitä, niin voit zoomata sisään; viivalla varustettua vihreää pistettä, niin voit zoomata ulos tai vihreitä nuolia, niin pääset viereisille kartoille.


METAR-TAF: